Details for Norwegian Air Shuttle at EGPH




Go Back


Latest METAR
Local Time

EGPH 241320Z 11010KT CAVOK 06/M03 Q1025

24/02/2018, 13:50:40

Description
Results
Norwegian Air Shuttle Logo
Number of Pilots based at EGPH
0 Pilots Based here
Number of Norwegian Air Shuttle Flights Departed from EGPH
1 Flights Departed
Number of Norwegian Air Shuttle Flights Arrived at EGPH
0 Flights Arrived
Number of Norwegian Air Shuttle Schedules Departing from EGPH
5 Schedules
Number of Norwegian Air Shuttle Schedules Arriving at EGPH
5 Schedules
Number of Norwegian Air Shuttle Schedules Departing from EGPH availible today
0 Schedules Today
Number of Norwegian Air Shuttle Schedules Arriving at EGPH availible today
0 Schedules Today
Average Landing Rate at EGPH
-244 fpm
Norwegian Air Shuttle Average Landing Rate at EGPH
0 fpm
Total Fuel Purchased at EGPH by Norwegian Air Shuttle
4,548.62 kgs / 10,027.89 lbs

Pilots Based at EGPH


Pilot ID
Pilot Name
Pilot Rank
No. of Flights
No. of Flying Hours
There are no pilots assigned to this hub!   Will you be the first?
Content